Time;durP1;ratioP1;P1;durP2;ratioP2;P2;SDS_P1;SDS_P2;PMS_P1;PMS_P2;Temp;Humidity;BMP_temperature;BMP_pressure;BME280_temperature;BME280_humidity;BME280_pressure;Samples;Min_cycle;Max_cycle;Signal;HPM_P1;HPM_P2
2023/01/13 00:00:46;;;;;;;18.33;3.47;;;9.90;99.90;;;;;;5125223;27;20054;-69
2023/01/13 00:03:11;;;;;;;19.75;3.40;;;9.90;99.90;;;;;;5123812;27;20485;-68
2023/01/13 00:05:37;;;;;;;16.73;3.30;;;9.90;99.90;;;;;;5123595;27;20494;-69
2023/01/13 00:08:05;;;;;;;14.75;3.58;;;9.90;99.90;;;;;;5107513;27;20035;-69
2023/01/13 00:10:32;;;;;;;17.85;3.45;;;9.80;99.90;;;;;;5123836;27;20101;-69
2023/01/13 00:12:57;;;;;;;20.88;4.50;;;9.80;99.90;;;;;;5105508;27;20042;-69
2023/01/13 00:15:23;;;;;;;18.73;3.60;;;9.70;99.90;;;;;;5106677;27;20043;-68
2023/01/13 00:17:48;;;;;;;19.70;4.18;;;9.70;99.90;;;;;;5125827;27;20378;-68
2023/01/13 00:20:15;;;;;;;25.83;4.38;;;9.70;99.90;;;;;;5123060;27;20039;-69
2023/01/13 00:22:40;;;;;;;22.80;4.57;;;9.70;99.90;;;;;;5107744;27;20035;-68
2023/01/13 00:25:06;;;;;;;21.33;4.40;;;9.60;99.90;;;;;;5107942;27;21143;-69
2023/01/13 00:27:32;;;;;;;20.48;3.97;;;9.60;99.90;;;;;;5108419;27;20039;-69
2023/01/13 00:29:58;;;;;;;18.73;4.35;;;9.60;99.90;;;;;;5131266;27;20035;-69
2023/01/13 00:32:24;;;;;;;22.02;4.78;;;9.60;99.90;;;;;;5128705;27;20469;-68
2023/01/13 00:34:50;;;;;;;18.45;3.78;;;9.50;99.90;;;;;;5125614;27;20054;-68
2023/01/13 00:37:15;;;;;;;18.85;3.85;;;9.50;99.90;;;;;;5123230;27;20054;-69
2023/01/13 00:39:41;;;;;;;21.98;3.90;;;9.50;99.90;;;;;;5128296;27;20107;-68
2023/01/13 00:44:51;;;;;;;22.88;4.03;;;9.40;99.90;;;;;;5126319;27;20088;-68
2023/01/13 00:47:17;;;;;;;24.25;4.40;;;9.30;99.90;;;;;;5127297;27;20043;-68
2023/01/13 00:49:43;;;;;;;19.65;3.97;;;9.40;99.90;;;;;;5106901;27;20046;-69
2023/01/13 00:52:10;;;;;;;18.20;3.83;;;9.40;99.90;;;;;;5126091;27;20045;-69
2023/01/13 00:54:36;;;;;;;20.25;4.72;;;9.30;99.90;;;;;;5125806;27;20231;-68
2023/01/13 00:57:03;;;;;;;23.40;5.63;;;9.30;99.90;;;;;;5099852;27;20126;-69
2023/01/13 00:59:29;;;;;;;28.63;5.70;;;9.30;99.90;;;;;;5124548;27;20039;-69
2023/01/13 01:01:55;;;;;;;21.38;4.43;;;9.30;99.90;;;;;;5118135;27;20050;-68
2023/01/13 01:04:20;;;;;;;25.00;5.00;;;9.30;99.90;;;;;;5102129;28;20553;-68
2023/01/13 01:06:46;;;;;;;22.80;5.28;;;9.30;99.90;;;;;;5126206;28;20176;-69
2023/01/13 01:09:13;;;;;;;22.58;4.90;;;9.30;99.90;;;;;;5108477;28;20118;-69
2023/01/13 01:11:40;;;;;;;27.67;5.03;;;9.20;99.90;;;;;;5130667;28;20045;-69
2023/01/13 01:14:06;;;;;;;22.77;5.23;;;9.20;99.90;;;;;;5106423;28;20397;-68
2023/01/13 01:16:32;;;;;;;22.90;4.97;;;9.20;99.90;;;;;;5129657;28;20047;-69
2023/01/13 01:18:59;;;;;;;23.98;5.60;;;9.20;99.90;;;;;;5109788;28;20054;-68
2023/01/13 01:21:27;;;;;;;21.70;5.13;;;9.20;99.90;;;;;;5121184;28;20042;-69
2023/01/13 01:23:53;;;;;;;25.85;5.15;;;9.20;99.90;;;;;;5119015;27;20074;-68
2023/01/13 01:26:24;;;;;;;25.52;5.20;;;9.20;99.90;;;;;;5106717;28;20043;-68
2023/01/13 01:28:50;;;;;;;22.42;5.63;;;9.10;99.90;;;;;;5128178;27;20032;-68
2023/01/13 01:31:19;;;;;;;19.88;4.28;;;9.20;99.90;;;;;;5120858;28;20054;-69
2023/01/13 01:33:48;;;;;;;25.05;4.63;;;9.20;99.90;;;;;;5127359;28;20442;-68
2023/01/13 01:36:16;;;;;;;23.10;5.15;;;9.20;99.90;;;;;;5124525;28;20477;-69
2023/01/13 01:38:42;;;;;;;23.55;4.70;;;9.20;99.90;;;;;;5124882;28;20031;-69
2023/01/13 01:41:13;;;;;;;22.08;5.65;;;9.30;99.90;;;;;;5122651;28;20027;-69
2023/01/13 01:44:04;;;;;;;27.70;5.38;;;9.20;99.90;;;;;;5106323;28;20040;-68
2023/01/13 01:46:33;;;;;;;27.50;5.85;;;9.20;99.90;;;;;;5105647;28;20367;-69
2023/01/13 01:49:11;;;;;;;28.38;5.45;;;9.20;99.90;;;;;;5106968;28;20053;-69
2023/01/13 01:51:48;;;;;;;26.73;5.30;;;9.20;99.90;;;;;;5110406;27;20047;-68
2023/01/13 01:54:37;;;;;;;27.70;6.22;;;9.20;99.90;;;;;;5110165;27;20039;-68
2023/01/13 01:57:03;;;;;;;24.83;5.18;;;9.20;99.90;;;;;;5131484;27;20384;-68
2023/01/13 01:59:32;;;;;;;23.15;5.30;;;9.20;99.90;;;;;;5110000;27;20054;-68
2023/01/13 02:01:58;;;;;;;27.48;5.93;;;9.20;99.90;;;;;;5124627;27;20051;-68
2023/01/13 02:04:29;;;;;;;28.17;6.15;;;9.10;99.90;;;;;;5106892;27;20054;-68
2023/01/13 02:06:55;;;;;;;32.13;6.88;;;9.10;99.90;;;;;;5126816;27;20052;-68
2023/01/13 02:09:21;;;;;;;30.10;5.70;;;9.10;99.90;;;;;;5121641;27;20500;-68
2023/01/13 02:14:32;;;;;;;28.50;6.10;;;9.10;99.90;;;;;;5129481;27;20042;-68
2023/01/13 02:17:07;;;;;;;28.63;6.80;;;9.00;99.90;;;;;;5127103;27;20039;-69
2023/01/13 02:20:10;;;;;;;28.95;6.88;;;9.00;99.90;;;;;;5107545;27;20035;-69
2023/01/13 02:22:57;;;;;;;27.17;6.13;;;8.90;99.90;;;;;;5042447;28;20045;-68
2023/01/13 02:26:08;;;;;;;29.10;6.45;;;8.90;99.90;;;;;;5104318;27;20554;-69
2023/01/13 02:31:40;;;;;;;35.85;6.43;;;8.90;99.90;;;;;;5057573;27;20448;-68
2023/01/13 02:31:43;;;;;;;36.88;6.80;;;8.80;99.90;;;;;;5125083;27;20039;-69
2023/01/13 02:34:41;;;;;;;33.45;6.30;;;8.80;99.90;;;;;;5125382;27;20051;-69
2023/01/13 02:37:11;;;;;;;27.58;6.10;;;8.80;99.90;;;;;;5087536;27;20059;-68
2023/01/13 02:39:59;;;;;;;29.70;6.03;;;8.80;99.90;;;;;;5123124;27;20039;-68
2023/01/13 02:45:22;;;;;;;30.30;6.28;;;8.70;99.90;;;;;;5108394;27;20063;-69
2023/01/13 02:47:50;;;;;;;31.65;5.93;;;8.70;99.90;;;;;;5129094;27;20051;-69
2023/01/13 02:50:17;;;;;;;;;;;8.60;99.90;;;;;;5105762;27;20046;-68
2023/01/13 02:52:55;;;;;;;31.50;5.82;;;8.70;99.90;;;;;;5108267;27;19974;-68
2023/01/13 02:55:27;;;;;;;30.02;5.82;;;8.60;99.90;;;;;;5101620;27;20044;-68
2023/01/13 02:57:57;;;;;;;29.75;6.88;;;8.70;99.90;;;;;;5128200;27;20035;-69
2023/01/13 03:00:23;;;;;;;33.58;6.60;;;8.60;99.90;;;;;;5124617;27;20027;-68
2023/01/13 03:02:49;;;;;;;27.63;5.57;;;8.60;99.90;;;;;;5110771;27;20039;-68
2023/01/13 03:05:16;;;;;;;32.45;6.47;;;8.60;99.90;;;;;;5102935;28;20052;-68
2023/01/13 03:08:00;;;;;;;31.98;5.82;;;8.60;99.90;;;;;;5105165;28;20106;-69
2023/01/13 03:10:46;;;;;;;26.58;5.07;;;8.50;99.90;;;;;;5104513;28;20510;-68
2023/01/13 03:13:56;;;;;;;30.65;6.45;;;8.50;99.90;;;;;;5099371;28;20406;-68
2023/01/13 03:16:50;;;;;;;36.03;6.93;;;8.50;99.90;;;;;;5106339;28;20071;-68
2023/01/13 03:19:43;;;;;;;34.28;5.40;;;8.50;99.90;;;;;;5108775;28;20074;-69
2023/01/13 03:22:34;;;;;;;29.67;5.85;;;8.50;99.90;;;;;;5120113;27;20068;-69
2023/01/13 03:25:14;;;;;;;32.28;5.57;;;8.40;99.90;;;;;;5103937;28;20059;-68
2023/01/13 03:27:43;;;;;;;36.65;7.38;;;8.50;99.90;;;;;;5106835;28;20112;-68
2023/01/13 03:30:35;;;;;;;27.25;5.53;;;8.50;99.90;;;;;;5107937;28;20508;-68
2023/01/13 03:33:11;;;;;;;36.30;6.82;;;8.50;99.90;;;;;;5108615;28;20044;-69
2023/01/13 03:35:40;;;;;;;29.90;5.50;;;8.50;99.90;;;;;;5107197;28;20079;-69
2023/01/13 03:38:21;;;;;;;32.63;6.13;;;8.40;99.90;;;;;;5108855;28;20100;-69
2023/01/13 03:40:57;;;;;;;30.75;6.88;;;8.50;99.90;;;;;;5105313;28;20142;-69
2023/01/13 03:46:33;;;;;;;31.42;6.88;;;8.50;99.90;;;;;;5110991;28;20047;-67
2023/01/13 03:49:02;;;;;;;33.33;6.97;;;8.60;99.90;;;;;;5112717;28;20139;-68
2023/01/13 03:51:31;;;;;;;32.13;6.40;;;8.60;99.90;;;;;;5110324;28;20051;-68
2023/01/13 03:54:03;;;;;;;34.28;8.10;;;8.50;99.90;;;;;;5108198;28;20382;-68
2023/01/13 03:56:44;;;;;;;34.45;6.63;;;8.60;99.90;;;;;;5103594;28;20490;-68
2023/01/13 03:59:15;;;;;;;32.53;6.45;;;8.50;99.90;;;;;;5110283;27;20067;-68
2023/01/13 04:02:08;;;;;;;34.95;7.40;;;8.60;99.90;;;;;;5100409;28;20043;-68
2023/01/13 04:04:57;;;;;;;30.92;6.30;;;8.50;99.90;;;;;;5078848;28;20158;-69
2023/01/13 04:07:46;;;;;;;33.53;6.00;;;8.50;99.90;;;;;;5083974;28;20438;-69
2023/01/13 04:10:18;;;;;;;32.35;6.80;;;8.50;99.90;;;;;;5083643;28;20118;-69
2023/01/13 04:12:59;;;;;;;37.53;6.32;;;8.50;99.90;;;;;;5084048;28;20036;-68
2023/01/13 04:15:30;;;;;;;32.88;6.95;;;8.50;99.90;;;;;;5085879;28;20042;-68
2023/01/13 04:18:14;;;;;;;30.13;6.45;;;8.50;99.90;;;;;;5083829;28;20483;-69
2023/01/13 04:20:41;;;;;;;35.33;6.53;;;8.50;99.90;;;;;;5080862;28;20441;-68
2023/01/13 04:23:07;;;;;;;34.53;6.90;;;8.50;99.90;;;;;;5082540;28;20039;-69
2023/01/13 04:25:33;;;;;;;32.72;7.10;;;8.50;99.90;;;;;;5077553;28;20408;-68
2023/01/13 04:27:58;;;;;;;29.75;5.97;;;8.50;99.90;;;;;;5084993;28;20102;-69
2023/01/13 04:30:24;;;;;;;37.08;7.18;;;8.40;99.90;;;;;;5083460;28;20036;-69
2023/01/13 04:32:49;;;;;;;29.75;6.18;;;8.50;99.90;;;;;;5083005;28;20138;-69
2023/01/13 04:35:15;;;;;;;31.65;7.40;;;8.40;99.90;;;;;;5088078;28;20067;-69
2023/01/13 04:37:41;;;;;;;33.97;6.28;;;8.50;99.90;;;;;;5081936;28;20048;-69
2023/01/13 04:40:07;;;;;;;35.78;7.18;;;8.40;99.90;;;;;;5074982;28;20043;-69
2023/01/13 04:42:33;;;;;;;41.38;7.03;;;8.40;99.90;;;;;;5083336;28;20048;-69
2023/01/13 04:44:59;;;;;;;39.65;7.43;;;8.40;99.90;;;;;;5081616;28;20043;-69
2023/01/13 04:47:24;;;;;;;30.42;6.07;;;8.40;99.90;;;;;;5083876;28;20422;-69
2023/01/13 04:49:50;;;;;;;34.58;6.30;;;8.40;99.90;;;;;;5086204;28;20115;-69
2023/01/13 04:52:16;;;;;;;31.88;6.32;;;8.50;99.90;;;;;;5087502;28;20056;-69
2023/01/13 04:54:41;;;;;;;32.72;6.07;;;8.50;99.90;;;;;;5084202;28;20650;-69
2023/01/13 04:57:07;;;;;;;34.40;6.25;;;8.50;99.90;;;;;;5081839;28;20032;-69
2023/01/13 04:59:32;;;;;;;35.83;6.70;;;8.40;99.90;;;;;;5079194;28;20225;-69
2023/01/13 05:01:58;;;;;;;39.88;8.07;;;8.60;99.90;;;;;;5076632;28;20543;-69
2023/01/13 05:04:24;;;;;;;33.90;7.28;;;8.50;99.90;;;;;;5094419;27;20039;-69
2023/01/13 05:06:49;;;;;;;33.97;6.53;;;8.50;99.90;;;;;;5128080;28;20532;-69
2023/01/13 05:09:15;;;;;;;35.38;6.30;;;8.50;99.90;;;;;;5120879;28;20524;-69
2023/01/13 05:17:16;;;;;;;30.92;6.25;;;8.50;99.90;;;;;;5123737;28;20126;-69
2023/01/13 05:19:41;;;;;;;33.13;6.95;;;8.40;99.90;;;;;;5102914;28;20684;-69
2023/01/13 05:27:35;;;;;;;35.10;6.03;;;8.40;99.90;;;;;;5126373;27;20051;-69
2023/01/13 05:30:01;;;;;;;32.17;5.95;;;8.40;99.90;;;;;;5129380;27;20042;-69
2023/01/13 05:32:27;;;;;;;31.92;6.60;;;8.40;99.90;;;;;;5131460;27;20047;-69
2023/01/13 05:34:53;;;;;;;31.92;5.28;;;8.40;99.90;;;;;;5131139;27;20076;-69
2023/01/13 05:37:19;;;;;;;27.80;6.23;;;8.40;99.90;;;;;;5127936;27;20054;-69
2023/01/13 05:45:13;;;;;;;26.88;5.50;;;8.30;99.90;;;;;;5102209;27;20463;-69
2023/01/13 05:47:38;;;;;;;32.92;5.47;;;8.30;99.90;;;;;;5131483;27;20042;-69
2023/01/13 05:50:04;;;;;;;27.40;5.40;;;8.30;99.90;;;;;;5102722;27;20054;-69
2023/01/13 05:52:30;;;;;;;23.77;5.32;;;8.30;99.90;;;;;;5128040;27;20118;-69
2023/01/13 05:54:56;;;;;;;28.95;5.97;;;8.30;99.90;;;;;;5104044;27;20051;-69
2023/01/13 05:57:22;;;;;;;27.92;5.60;;;8.30;99.90;;;;;;5124867;27;20396;-69
2023/01/13 05:59:47;;;;;;;28.92;5.80;;;8.30;99.90;;;;;;5129018;27;20501;-69
2023/01/13 06:02:13;;;;;;;26.55;5.53;;;8.30;99.90;;;;;;5131541;27;20038;-69
2023/01/13 06:04:39;;;;;;;29.35;5.35;;;8.30;99.90;;;;;;5107370;27;20075;-69
2023/01/13 06:07:05;;;;;;;23.52;5.43;;;8.30;99.90;;;;;;5106451;27;20815;-69
2023/01/13 06:09:31;;;;;;;23.33;5.15;;;8.30;99.90;;;;;;5108803;27;20027;-69
2023/01/13 06:11:57;;;;;;;20.00;4.32;;;8.30;99.90;;;;;;5124687;27;20105;-69
2023/01/13 06:14:22;;;;;;;23.35;4.50;;;8.40;99.90;;;;;;5127156;27;20160;-69
2023/01/13 06:16:48;;;;;;;18.50;4.45;;;8.30;99.90;;;;;;5109282;27;20041;-69
2023/01/13 06:19:14;;;;;;;24.70;4.85;;;8.30;99.90;;;;;;5106346;27;20497;-69
2023/01/13 06:21:40;;;;;;;22.95;5.05;;;8.30;99.90;;;;;;5125275;27;20107;-69
2023/01/13 06:24:06;;;;;;;20.88;3.83;;;8.30;99.90;;;;;;5130107;27;20058;-69
2023/01/13 06:26:39;;;;;;;23.35;4.60;;;8.30;99.90;;;;;;5119141;27;20050;-69
2023/01/13 06:29:05;;;;;;;22.70;4.30;;;8.30;99.90;;;;;;5128983;27;20035;-69
2023/01/13 06:31:35;;;;;;;18.50;4.60;;;8.20;99.90;;;;;;5110969;27;20062;-69
2023/01/13 06:34:10;;;;;;;22.58;4.03;;;8.30;99.90;;;;;;5124501;27;20048;-69
2023/01/13 06:36:40;;;;;;;19.33;3.90;;;8.30;99.90;;;;;;5126978;27;20137;-69
2023/01/13 06:39:10;;;;;;;15.55;3.70;;;8.30;99.90;;;;;;5106342;27;20051;-68
2023/01/13 06:44:22;;;;;;;17.20;3.17;;;8.30;99.90;;;;;;5125438;27;20468;-69
2023/01/13 06:46:48;;;;;;;18.73;3.53;;;8.30;99.90;;;;;;5105751;27;20043;-69
2023/01/13 06:49:13;;;;;;;16.40;3.65;;;8.30;99.90;;;;;;5107653;27;20066;-69
2023/01/13 06:51:39;;;;;;;16.67;3.30;;;8.30;99.90;;;;;;5130901;27;20362;-69
2023/01/13 06:54:05;;;;;;;16.10;3.40;;;8.30;99.90;;;;;;5123819;27;20382;-69
2023/01/13 06:56:30;;;;;;;13.07;3.03;;;8.30;99.90;;;;;;5110476;27;20047;-69
2023/01/13 06:58:56;;;;;;;16.50;3.33;;;8.30;99.90;;;;;;5119012;27;20520;-69
2023/01/13 07:01:22;;;;;;;16.08;3.40;;;8.30;99.90;;;;;;5103760;27;20038;-69
2023/01/13 07:03:48;;;;;;;15.82;3.72;;;8.30;99.90;;;;;;5101132;27;20047;-70
2023/01/13 07:06:13;;;;;;;15.00;3.30;;;8.30;99.90;;;;;;5124825;27;20982;-69
2023/01/13 07:08:39;;;;;;;17.85;3.40;;;8.30;99.90;;;;;;5121806;27;20122;-70
2023/01/13 07:11:05;;;;;;;16.20;3.17;;;8.30;99.90;;;;;;5126340;27;20087;-69
2023/01/13 07:16:18;;;;;;;20.92;3.47;;;8.30;99.90;;;;;;5127124;27;20051;-69
2023/01/13 07:18:44;;;;;;;16.05;3.00;;;8.30;99.90;;;;;;5106359;27;20145;-69
2023/01/13 07:21:17;;;;;;;15.88;2.90;;;8.30;99.90;;;;;;5124737;27;20035;-69
2023/01/13 07:23:43;;;;;;;15.45;2.90;;;8.20;99.90;;;;;;5121018;27;20055;-69
2023/01/13 07:26:10;;;;;;;15.48;2.75;;;8.30;99.90;;;;;;5104056;27;20513;-70
2023/01/13 07:28:37;;;;;;;15.57;3.33;;;8.30;99.90;;;;;;5104557;27;20031;-69
2023/01/13 07:31:02;;;;;;;16.75;3.28;;;8.30;99.90;;;;;;5105880;27;20046;-69
2023/01/13 07:33:31;;;;;;;14.80;3.58;;;8.20;99.90;;;;;;5125658;27;20047;-70
2023/01/13 07:36:00;;;;;;;17.30;3.30;;;8.20;99.90;;;;;;5128052;27;20039;-69
2023/01/13 07:38:26;;;;;;;18.00;3.03;;;8.30;99.90;;;;;;5111726;27;20046;-69
2023/01/13 07:40:53;;;;;;;17.27;3.85;;;8.30;99.90;;;;;;5128580;27;20054;-69
2023/01/13 07:43:30;;;;;;;16.13;3.20;;;8.30;99.90;;;;;;5122451;27;20468;-69
2023/01/13 07:46:01;;;;;;;19.30;3.70;;;8.30;99.90;;;;;;5110849;27;20119;-69
2023/01/13 07:48:28;;;;;;;13.50;2.50;;;8.30;99.90;;;;;;5127555;27;20059;-69
2023/01/13 07:50:54;;;;;;;15.30;3.35;;;8.30;99.90;;;;;;5127192;27;20139;-69
2023/01/13 07:53:21;;;;;;;19.00;3.42;;;8.40;99.90;;;;;;5108801;27;20792;-70
2023/01/13 07:55:47;;;;;;;18.80;4.20;;;8.30;99.90;;;;;;5125699;27;20039;-69
2023/01/13 07:58:13;;;;;;;14.77;3.53;;;8.30;99.90;;;;;;5125026;27;20043;-69
2023/01/13 08:00:39;;;;;;;17.27;3.92;;;8.30;99.90;;;;;;5110753;27;20039;-69
2023/01/13 08:03:05;;;;;;;18.73;3.25;;;8.20;99.90;;;;;;5101227;27;20162;-69
2023/01/13 08:05:31;;;;;;;16.77;3.60;;;8.30;99.90;;;;;;5123538;27;20501;-69
2023/01/13 08:07:56;;;;;;;20.23;3.38;;;8.40;99.90;;;;;;5125382;27;20058;-69
2023/01/13 08:10:22;;;;;;;18.45;4.03;;;8.40;99.90;;;;;;5126401;27;20048;-69
2023/01/13 08:15:33;;;;;;;20.77;4.35;;;8.40;99.90;;;;;;5123123;27;20158;-69
2023/01/13 08:17:59;;;;;;;20.10;4.10;;;8.40;99.90;;;;;;5104420;27;20043;-70
2023/01/13 08:20:26;;;;;;;17.58;4.22;;;8.40;99.90;;;;;;5109581;27;20039;-70
2023/01/13 08:22:58;;;;;;;23.08;4.30;;;8.40;99.90;;;;;;5103717;27;20039;-70
2023/01/13 08:25:25;;;;;;;18.20;3.65;;;8.40;99.90;;;;;;5098002;27;20047;-73
2023/01/13 08:27:51;;;;;;;20.10;3.90;;;8.40;99.90;;;;;;5124067;27;20035;-72
2023/01/13 08:30:17;;;;;;;21.08;4.05;;;8.50;99.90;;;;;;5131057;27;20042;-73
2023/01/13 08:32:44;;;;;;;20.77;4.25;;;8.40;99.90;;;;;;5127630;27;20073;-74
2023/01/13 08:35:10;;;;;;;17.58;3.83;;;8.40;99.90;;;;;;5111018;28;20051;-74
2023/01/13 08:37:35;;;;;;;21.50;3.90;;;8.30;99.90;;;;;;5126928;27;20046;-73
2023/01/13 08:40:01;;;;;;;20.20;3.92;;;8.40;99.90;;;;;;5126339;27;20061;-73
2023/01/13 08:42:27;;;;;;;18.02;5.03;;;8.40;99.90;;;;;;5106977;27;20218;-73
2023/01/13 08:44:53;;;;;;;15.43;3.90;;;8.30;99.90;;;;;;5120261;27;20417;-73
2023/01/13 08:47:19;;;;;;;21.83;4.65;;;8.40;99.90;;;;;;5114729;27;20050;-74
2023/01/13 08:49:45;;;;;;;21.48;4.07;;;8.30;99.90;;;;;;5131871;27;20047;-73
2023/01/13 08:52:11;;;;;;;24.10;4.25;;;8.40;99.90;;;;;;5130909;27;20105;-74
2023/01/13 08:54:38;;;;;;;17.75;4.18;;;8.30;99.90;;;;;;5109793;28;20050;-72
2023/01/13 08:57:04;;;;;;;24.45;4.63;;;8.30;99.90;;;;;;5130732;27;20079;-73
2023/01/13 08:59:29;;;;;;;20.60;4.13;;;8.20;99.90;;;;;;5127793;27;20057;-73
2023/01/13 09:01:55;;;;;;;22.08;4.38;;;8.20;99.90;;;;;;5131575;27;20043;-72
2023/01/13 09:04:24;;;;;;;20.50;3.95;;;8.20;99.90;;;;;;5129451;27;20047;-70
2023/01/13 09:06:50;;;;;;;23.55;5.32;;;8.20;99.90;;;;;;5128444;28;20130;-73
2023/01/13 09:09:15;;;;;;;16.08;3.85;;;8.20;99.90;;;;;;5131122;28;20115;-74
2023/01/13 09:14:29;;;;;;;;;;;8.20;99.90;;;;;;5121131;28;20055;-70
2023/01/13 09:16:55;;;;;;;17.40;3.50;;;8.20;99.90;;;;;;5128945;28;19926;-70
2023/01/13 09:19:21;;;;;;;20.48;3.85;;;8.20;99.90;;;;;;5122076;28;20031;-70
2023/01/13 09:21:46;;;;;;;24.38;4.75;;;8.20;99.90;;;;;;5126980;28;20358;-74
2023/01/13 09:24:12;;;;;;;22.80;4.75;;;8.20;99.90;;;;;;5108411;28;20043;-74
2023/01/13 09:26:38;;;;;;;22.08;4.20;;;8.20;99.90;;;;;;5109361;28;20046;-73
2023/01/13 09:29:04;;;;;;;22.73;3.97;;;8.20;99.90;;;;;;5119031;27;20067;-74
2023/01/13 09:31:33;;;;;;;19.48;4.88;;;8.20;99.90;;;;;;5122728;28;20051;-74
2023/01/13 09:36:46;;;;;;;21.17;3.92;;;8.20;99.90;;;;;;5100639;27;20489;-76
2023/01/13 09:39:13;;;;;;;21.52;4.20;;;8.20;99.90;;;;;;5104845;28;20089;-70
2023/01/13 09:45:22;;;;;;;25.88;4.45;;;8.30;99.90;;;;;;5108795;28;20105;-72
2023/01/13 09:47:50;;;;;;;22.27;4.40;;;8.30;99.90;;;;;;5131787;28;20058;-72
2023/01/13 09:50:52;;;;;;;18.08;4.05;;;8.30;99.90;;;;;;5129156;28;20047;-71
2023/01/13 09:53:42;;;;;;;20.33;3.50;;;8.40;99.90;;;;;;5112057;28;20051;-78
2023/01/13 09:56:10;;;;;;;21.30;4.90;;;8.40;99.90;;;;;;5125598;28;20420;-72
2023/01/13 09:58:36;;;;;;;17.50;3.60;;;8.50;99.90;;;;;;5103584;28;20036;-72
2023/01/13 10:01:34;;;;;;;21.08;4.00;;;8.60;99.90;;;;;;5122064;27;20040;-73
2023/01/13 10:04:18;;;;;;;17.33;3.47;;;8.60;99.90;;;;;;5104763;27;20047;-73
2023/01/13 10:06:48;;;;;;;18.15;4.55;;;8.60;99.90;;;;;;5131252;28;20047;-72
2023/01/13 10:09:29;;;;;;;16.33;3.40;;;8.60;99.90;;;;;;5118307;28;20115;-72
2023/01/13 10:14:54;;;;;;;18.52;4.13;;;8.60;99.90;;;;;;5132415;27;20502;-74
2023/01/13 10:17:41;;;;;;;19.55;3.80;;;8.60;99.90;;;;;;5108728;27;20042;-73
2023/01/13 10:20:33;;;;;;;17.70;3.60;;;8.60;99.90;;;;;;5115871;27;20061;-74
2023/01/13 10:23:20;;;;;;;18.33;3.75;;;8.60;99.90;;;;;;5116284;27;20481;-74
2023/01/13 10:26:27;;;;;;;20.08;4.07;;;8.50;99.90;;;;;;5101853;27;20447;-75
2023/01/13 10:28:54;;;;;;;20.50;3.72;;;8.50;99.90;;;;;;5051317;27;20063;-75
2023/01/13 10:31:21;;;;;;;19.67;4.00;;;8.50;99.90;;;;;;5126740;27;20062;-76
2023/01/13 10:33:48;;;;;;;23.45;4.88;;;8.50;99.90;;;;;;5109632;27;20039;-74
2023/01/13 10:36:21;;;;;;;23.27;4.43;;;8.60;99.90;;;;;;5110195;27;20061;-73
2023/01/13 10:38:49;;;;;;;16.98;4.00;;;8.40;99.90;;;;;;5106668;27;20039;-72
2023/01/13 10:41:14;;;;;;;21.55;4.60;;;8.40;99.90;;;;;;5123920;27;20047;-72
2023/01/13 10:44:01;;;;;;;17.98;4.38;;;8.40;99.90;;;;;;5130592;27;20046;-72
2023/01/13 10:46:28;;;;;;;27.00;4.72;;;8.40;99.90;;;;;;5105134;27;20046;-77
2023/01/13 10:48:55;;;;;;;;;;;8.30;99.90;;;;;;5132443;27;20058;-77
2023/01/13 10:51:26;;;;;;;20.25;3.92;;;8.30;99.90;;;;;;5133405;27;19923;-76
2023/01/13 10:54:02;;;;;;;21.15;4.35;;;8.30;99.90;;;;;;5132812;27;20383;-74
2023/01/13 10:56:31;;;;;;;24.67;4.78;;;8.40;99.90;;;;;;5113666;27;20078;-75
2023/01/13 10:59:09;;;;;;;24.35;5.05;;;8.40;99.90;;;;;;5115214;27;20055;-75
2023/01/13 11:01:35;;;;;;;22.38;4.43;;;8.40;99.90;;;;;;5108623;27;20508;-76
2023/01/13 11:04:35;;;;;;;22.83;4.57;;;8.40;99.90;;;;;;5106482;27;20699;-79
2023/01/13 11:07:23;;;;;;;15.02;3.67;;;8.30;99.90;;;;;;5098419;27;20489;-74
2023/01/13 11:09:59;;;;;;;;;;;8.40;99.90;;;;;;5105354;27;20103;-73
2023/01/13 11:12:31;;;;;;;20.70;4.28;;;8.40;99.90;;;;;;5108913;27;19942;-73
2023/01/13 11:15:00;;;;;;;24.15;3.95;;;8.40;99.90;;;;;;5128115;27;20088;-73
2023/01/13 11:17:39;;;;;;;23.90;4.80;;;8.40;99.90;;;;;;5129033;27;20049;-74
2023/01/13 11:20:13;;;;;;;18.38;4.55;;;8.40;99.90;;;;;;5120628;27;20043;-73
2023/01/13 11:22:45;;;;;;;24.65;4.65;;;8.40;99.90;;;;;;5113843;27;20035;-73
2023/01/13 11:25:20;;;;;;;20.92;4.22;;;8.40;99.90;;;;;;5128780;27;20047;-74
2023/01/13 11:27:58;;;;;;;16.65;4.22;;;8.40;99.90;;;;;;5131934;27;20051;-75
2023/01/13 11:30:41;;;;;;;21.40;4.43;;;8.40;99.90;;;;;;5124356;27;20096;-74
2023/01/13 11:33:13;;;;;;;21.55;4.68;;;8.40;99.90;;;;;;5127874;27;20039;-73
2023/01/13 11:36:10;;;;;;;20.98;3.83;;;8.50;99.90;;;;;;5108202;27;20053;-73
2023/01/13 11:38:53;;;;;;;22.80;4.97;;;8.50;99.90;;;;;;5103833;27;20047;-73
2023/01/13 11:41:44;;;;;;;20.25;4.50;;;8.50;99.90;;;;;;5127153;27;20092;-74
2023/01/13 11:44:21;;;;;;;19.60;4.63;;;8.50;99.90;;;;;;5120968;27;20047;-74
2023/01/13 11:46:52;;;;;;;25.75;5.28;;;8.60;99.90;;;;;;5107708;27;20463;-75
2023/01/13 11:49:29;;;;;;;14.95;3.55;;;8.60;99.90;;;;;;5131103;27;20039;-76
2023/01/13 11:51:55;;;;;;;;;;;8.60;99.90;;;;;;5110721;27;20066;-72
2023/01/13 11:54:38;;;;;;;22.05;4.70;;;8.60;99.90;;;;;;5118182;27;19923;-72
2023/01/13 11:57:13;;;;;;;19.98;3.95;;;8.60;99.90;;;;;;5120920;27;20035;-72
2023/01/13 11:59:41;;;;;;;25.02;4.85;;;8.60;99.90;;;;;;5126967;27;20547;-75
2023/01/13 12:02:18;;;;;;;24.25;4.40;;;8.60;99.90;;;;;;5103011;27;20040;-74
2023/01/13 12:05:17;;;;;;;26.90;4.68;;;8.60;99.90;;;;;;5111188;27;20039;-75
2023/01/13 12:08:03;;;;;;;24.08;4.72;;;8.60;99.90;;;;;;5126433;27;20074;-75
2023/01/13 12:10:29;;;;;;;19.02;4.50;;;8.60;99.90;;;;;;5120976;27;20100;-76
2023/01/13 12:13:32;;;;;;;19.20;4.32;;;8.60;99.90;;;;;;5128191;27;20035;-75
2023/01/13 12:16:25;;;;;;;26.17;4.60;;;8.60;99.90;;;;;;5110853;27;20553;-75
2023/01/13 12:18:56;;;;;;;19.67;3.97;;;8.60;99.90;;;;;;5124693;27;20062;-75
2023/01/13 12:21:27;;;;;;;23.08;4.55;;;8.70;99.90;;;;;;5127943;27;20489;-74
2023/01/13 12:23:53;;;;;;;21.10;4.35;;;8.70;99.90;;;;;;5130529;27;20154;-74
2023/01/13 12:26:18;;;;;;;24.50;4.70;;;8.70;99.90;;;;;;5110983;27;20076;-74
2023/01/13 12:28:50;;;;;;;20.80;4.72;;;8.70;99.90;;;;;;5131668;27;20046;-75
2023/01/13 12:31:18;;;;;;;23.10;4.88;;;8.70;99.90;;;;;;5120954;27;20055;-71
2023/01/13 12:33:49;;;;;;;;;;;8.70;99.90;;;;;;5128127;27;20043;-71
2023/01/13 12:36:28;;;;;;;24.52;4.57;;;8.70;99.90;;;;;;5127129;27;19919;-70
2023/01/13 12:39:27;;;;;;;21.58;3.78;;;8.70;99.90;;;;;;5110491;27;20439;-70
2023/01/13 12:45:10;;;;;;;20.13;4.55;;;8.70;99.90;;;;;;5120936;27;20040;-70
2023/01/13 12:47:37;;;;;;;20.92;4.05;;;8.70;99.90;;;;;;5120921;27;20051;-70
2023/01/13 12:50:21;;;;;;;22.08;4.10;;;8.80;99.90;;;;;;5130451;27;20031;-70
2023/01/13 12:52:47;;;;;;;21.35;4.47;;;8.70;99.90;;;;;;5128129;27;20050;-70
2023/01/13 12:55:16;;;;;;;20.65;4.32;;;8.70;99.90;;;;;;5130368;27;20050;-70
2023/01/13 12:58:03;;;;;;;21.60;4.47;;;8.70;99.90;;;;;;5112126;28;20039;-70
2023/01/13 13:00:50;;;;;;;23.42;5.13;;;8.70;99.90;;;;;;5126772;27;20047;-70
2023/01/13 13:03:36;;;;;;;19.10;4.03;;;8.60;99.90;;;;;;5112232;27;20444;-70
2023/01/13 13:06:08;;;;;;;18.88;4.38;;;8.60;99.90;;;;;;5127654;27;20051;-71
2023/01/13 13:08:39;;;;;;;20.15;4.05;;;8.60;99.90;;;;;;5106567;28;20077;-70
2023/01/13 13:14:42;;;;;;;19.45;3.55;;;8.60;99.90;;;;;;5109028;28;20051;-70
2023/01/13 13:17:30;;;;;;;20.00;3.83;;;8.60;99.90;;;;;;5125557;28;20080;-70
2023/01/13 13:19:57;;;;;;;19.73;4.22;;;8.50;99.90;;;;;;5098210;28;20070;-70
2023/01/13 13:22:26;;;;;;;20.00;4.22;;;8.40;99.90;;;;;;5129774;28;20063;-71
2023/01/13 13:24:54;;;;;;;25.45;4.63;;;8.40;99.90;;;;;;5130014;28;20482;-71
2023/01/13 13:27:32;;;;;;;26.65;5.53;;;8.40;99.90;;;;;;5129033;28;20043;-70
2023/01/13 13:30:03;;;;;;;20.25;4.50;;;8.40;99.90;;;;;;5102956;28;20039;-71
2023/01/13 13:32:35;;;;;;;21.80;4.72;;;8.30;99.90;;;;;;5125523;28;20510;-71
2023/01/13 13:35:18;;;;;;;24.88;4.47;;;8.30;99.90;;;;;;5110822;28;20043;-71
2023/01/13 13:46:45;;;;;;;18.52;3.72;;;8.40;99.90;;;;;;5126535;27;20051;-71
2023/01/13 13:49:13;;;;;;;18.05;3.47;;;8.40;99.90;;;;;;5123429;27;20035;-70
2023/01/13 13:51:49;;;;;;;16.63;4.13;;;8.40;99.90;;;;;;5133883;27;20047;-70
2023/01/13 13:54:21;;;;;;;18.92;3.58;;;8.40;99.90;;;;;;5115187;27;20047;-70
2023/01/13 13:56:49;;;;;;;17.70;3.75;;;8.40;99.90;;;;;;5115062;27;20051;-71
2023/01/13 13:59:20;;;;;;;16.88;3.90;;;8.40;99.90;;;;;;5132122;27;20035;-70
2023/01/13 14:01:52;;;;;;;21.48;4.20;;;8.40;99.90;;;;;;5133154;27;20405;-70
2023/01/13 14:04:21;;;;;;;16.20;3.35;;;8.40;99.90;;;;;;5131267;27;20447;-71
2023/01/13 14:07:12;;;;;;;18.05;2.90;;;8.50;99.90;;;;;;5107050;27;20054;-70
2023/01/13 14:09:45;;;;;;;17.67;3.40;;;8.40;99.90;;;;;;5106704;27;20130;-70
2023/01/13 14:12:22;;;;;;;13.35;2.95;;;8.50;99.90;;;;;;5122641;27;20043;-77
2023/01/13 14:14:49;;;;;;;17.60;3.65;;;8.50;99.90;;;;;;5110583;27;20047;-76